Archival Weather

Chicago O'Hare International

Chicago, Illinois (KORD)

Report from: Thursday, December 7, 2023 5:51 AM CST
Current time: Wednesday, April 24, 2024 2:26 PM CDT

Current weather – Weather history – Daily summaries
Weather forecast

Temperature2.8°C (37.0°F)
Wind chill-0.9°C (30.4°F)
Dew point-1.1°C (30.0°F)
Winds 8 kts (4.1 m/s, 9.2 mph) South-Southwest (210°)
Visibility10 mi. (16.1 km)
Clouds Scattered clouds 25,000 ft. (7,620 m)
Altimeter29.87 in.Hg (1012 mB)
Relative humidity75 %
Density altitude-1,353 ft. (-412 m)
Sea-level pressure101.2 kPa (1012 mB, 29.88 in.Hg)
Max temp last 6 hours3.9°C (39.0°F)
Min temp last 6 hours2.8°C (37.0°F)
Remarks Automated weather observing station with precipitation discriminator
Pressure falling, then rising
Flight conditions Visual Meteorological Conditions
Raw dataKORD 071151Z 21008KT 10SM SCT250 03/M01 A2987 RMK AO2 SLP120 T00281011 10039 20028 55012
An error has occurred. This application may no longer respond until reloaded. Reload 🗙